sensor_id;sensor_type;location;lat;lon;timestamp;P1;durP1;ratioP1;P2;durP2;ratioP2
32505;SDS011;18955;51.224;8.482;2022-09-04T00:00:09;3.15;;;1.20;;
32505;SDS011;18955;51.224;8.482;2022-09-04T00:13:30;1.75;;;1.58;;
32505;SDS011;18955;51.224;8.482;2022-09-04T00:16:04;6.53;;;1.60;;
32505;SDS011;18955;51.224;8.482;2022-09-04T00:24:15;2.00;;;1.40;;
32505;SDS011;18955;51.224;8.482;2022-09-04T00:27:04;3.65;;;1.73;;
32505;SDS011;18955;51.224;8.482;2022-09-04T00:32:40;3.00;;;1.48;;
32505;SDS011;18955;51.224;8.482;2022-09-04T00:35:21;1.70;;;1.60;;
32505;SDS011;18955;51.224;8.482;2022-09-04T00:40:32;2.47;;;1.55;;
32505;SDS011;18955;51.224;8.482;2022-09-04T00:46:07;2.40;;;1.65;;
32505;SDS011;18955;51.224;8.482;2022-09-04T01:05:15;7.15;;;2.00;;
32505;SDS011;18955;51.224;8.482;2022-09-04T01:16:26;3.15;;;1.67;;
32505;SDS011;18955;51.224;8.482;2022-09-04T01:30:15;7.70;;;1.65;;
32505;SDS011;18955;51.224;8.482;2022-09-04T01:36:09;2.80;;;1.80;;
32505;SDS011;18955;51.224;8.482;2022-09-04T01:38:42;2.80;;;1.60;;
32505;SDS011;18955;51.224;8.482;2022-09-04T01:41:17;3.40;;;1.58;;
32505;SDS011;18955;51.224;8.482;2022-09-04T01:43:52;2.42;;;1.60;;
32505;SDS011;18955;51.224;8.482;2022-09-04T01:48:49;1.83;;;1.50;;
32505;SDS011;18955;51.224;8.482;2022-09-04T01:51:24;4.00;;;1.67;;
32505;SDS011;18955;51.224;8.482;2022-09-04T01:54:02;4.40;;;1.83;;
32505;SDS011;18955;51.224;8.482;2022-09-04T01:56:39;5.03;;;2.15;;
32505;SDS011;18955;51.224;8.482;2022-09-04T02:04:52;3.88;;;2.15;;
32505;SDS011;18955;51.224;8.482;2022-09-04T02:10:14;4.45;;;1.60;;
32505;SDS011;18955;51.224;8.482;2022-09-04T02:15:58;3.15;;;1.55;;
32505;SDS011;18955;51.224;8.482;2022-09-04T02:21:39;4.60;;;1.70;;
32505;SDS011;18955;51.224;8.482;2022-09-04T02:27:13;2.90;;;1.80;;
32505;SDS011;18955;51.224;8.482;2022-09-04T02:30:05;4.30;;;1.83;;
32505;SDS011;18955;51.224;8.482;2022-09-04T02:35:29;2.13;;;1.70;;
32505;SDS011;18955;51.224;8.482;2022-09-04T02:41:20;2.60;;;1.90;;
32505;SDS011;18955;51.224;8.482;2022-09-04T02:54:54;2.78;;;1.95;;
32505;SDS011;18955;51.224;8.482;2022-09-04T02:57:45;3.08;;;1.80;;
32505;SDS011;18955;51.224;8.482;2022-09-04T03:00:25;4.43;;;1.92;;
32505;SDS011;18955;51.224;8.482;2022-09-04T03:03:20;3.70;;;1.70;;
32505;SDS011;18955;51.224;8.482;2022-09-04T03:08:20;2.22;;;2.03;;
32505;SDS011;18955;51.224;8.482;2022-09-04T03:14:53;3.00;;;1.80;;
32505;SDS011;18955;51.224;8.482;2022-09-04T03:20:07;2.30;;;2.10;;
32505;SDS011;18955;51.224;8.482;2022-09-04T03:22:44;2.75;;;1.75;;
32505;SDS011;18955;51.224;8.482;2022-09-04T03:31:11;2.92;;;1.52;;
32505;SDS011;18955;51.224;8.482;2022-09-04T03:34:03;2.50;;;1.85;;
32505;SDS011;18955;51.224;8.482;2022-09-04T03:42:34;2.00;;;1.60;;
32505;SDS011;18955;51.224;8.482;2022-09-04T03:48:59;3.88;;;2.30;;
32505;SDS011;18955;51.224;8.482;2022-09-04T03:54:21;2.60;;;1.90;;
32505;SDS011;18955;51.224;8.482;2022-09-04T03:57:08;4.00;;;1.77;;
32505;SDS011;18955;51.224;8.482;2022-09-04T04:00:12;3.47;;;2.10;;
32505;SDS011;18955;51.224;8.482;2022-09-04T04:05:24;2.60;;;2.00;;
32505;SDS011;18955;51.224;8.482;2022-09-04T04:25:37;2.55;;;1.80;;
32505;SDS011;18955;51.224;8.482;2022-09-04T04:33:46;2.53;;;1.98;;
32505;SDS011;18955;51.224;8.482;2022-09-04T04:38:50;4.20;;;1.98;;
32505;SDS011;18955;51.224;8.482;2022-09-04T04:41:34;2.55;;;1.90;;
32505;SDS011;18955;51.224;8.482;2022-09-04T04:44:38;3.00;;;1.73;;
32505;SDS011;18955;51.224;8.482;2022-09-04T04:56:16;3.20;;;2.28;;
32505;SDS011;18955;51.224;8.482;2022-09-04T04:59:17;3.20;;;1.98;;
32505;SDS011;18955;51.224;8.482;2022-09-04T05:04:53;3.45;;;2.20;;
32505;SDS011;18955;51.224;8.482;2022-09-04T05:07:41;3.25;;;1.90;;
32505;SDS011;18955;51.224;8.482;2022-09-04T05:10:28;3.97;;;2.35;;
32505;SDS011;18955;51.224;8.482;2022-09-04T05:19:28;2.22;;;1.90;;
32505;SDS011;18955;51.224;8.482;2022-09-04T05:32:35;4.00;;;1.88;;
32505;SDS011;18955;51.224;8.482;2022-09-04T05:37:50;2.38;;;2.17;;
32505;SDS011;18955;51.224;8.482;2022-09-04T05:40:36;2.00;;;1.80;;
32505;SDS011;18955;51.224;8.482;2022-09-04T05:57:00;5.40;;;2.35;;
32505;SDS011;18955;51.224;8.482;2022-09-04T05:59:40;3.08;;;2.17;;
32505;SDS011;18955;51.224;8.482;2022-09-04T06:32:19;3.72;;;2.25;;
32505;SDS011;18955;51.224;8.482;2022-09-04T06:51:07;3.60;;;2.03;;
32505;SDS011;18955;51.224;8.482;2022-09-04T06:54:03;7.43;;;1.90;;
32505;SDS011;18955;51.224;8.482;2022-09-04T06:59:22;4.13;;;2.00;;
32505;SDS011;18955;51.224;8.482;2022-09-04T07:10:32;2.60;;;2.33;;
32505;SDS011;18955;51.224;8.482;2022-09-04T07:21:35;3.78;;;2.35;;
32505;SDS011;18955;51.224;8.482;2022-09-04T07:26:49;3.75;;;2.58;;
32505;SDS011;18955;51.224;8.482;2022-09-04T07:32:21;3.45;;;2.72;;
32505;SDS011;18955;51.224;8.482;2022-09-04T07:37:22;5.40;;;2.78;;
32505;SDS011;18955;51.224;8.482;2022-09-04T07:45:38;4.45;;;2.78;;
32505;SDS011;18955;51.224;8.482;2022-09-04T08:07:42;3.83;;;2.60;;
32505;SDS011;18955;51.224;8.482;2022-09-04T08:21:14;3.17;;;2.00;;
32505;SDS011;18955;51.224;8.482;2022-09-04T08:43:15;3.28;;;2.83;;
32505;SDS011;18955;51.224;8.482;2022-09-04T08:51:36;2.97;;;2.53;;
32505;SDS011;18955;51.224;8.482;2022-09-04T09:18:34;4.18;;;1.70;;
32505;SDS011;18955;51.224;8.482;2022-09-04T09:21:06;1.60;;;1.50;;
32505;SDS011;18955;51.224;8.482;2022-09-04T09:26:52;4.13;;;1.73;;
32505;SDS011;18955;51.224;8.482;2022-09-04T09:41:25;2.80;;;1.55;;
32505;SDS011;18955;51.224;8.482;2022-09-04T10:00:10;1.67;;;1.48;;
32505;SDS011;18955;51.224;8.482;2022-09-04T10:08:51;1.80;;;1.67;;
32505;SDS011;18955;51.224;8.482;2022-09-04T10:26:00;1.70;;;1.60;;
32505;SDS011;18955;51.224;8.482;2022-09-04T10:51:13;3.55;;;1.73;;
32505;SDS011;18955;51.224;8.482;2022-09-04T11:00:37;3.13;;;1.80;;
32505;SDS011;18955;51.224;8.482;2022-09-04T11:22:58;2.13;;;1.80;;
32505;SDS011;18955;51.224;8.482;2022-09-04T11:31:19;1.92;;;1.80;;
32505;SDS011;18955;51.224;8.482;2022-09-04T11:56:26;4.00;;;1.85;;
32505;SDS011;18955;51.224;8.482;2022-09-04T12:07:24;3.17;;;2.13;;
32505;SDS011;18955;51.224;8.482;2022-09-04T12:13:03;5.72;;;2.28;;
32505;SDS011;18955;51.224;8.482;2022-09-04T12:27:30;2.05;;;1.88;;
32505;SDS011;18955;51.224;8.482;2022-09-04T12:30:20;2.90;;;2.00;;
32505;SDS011;18955;51.224;8.482;2022-09-04T12:33:37;3.25;;;2.00;;
32505;SDS011;18955;51.224;8.482;2022-09-04T12:39:25;2.22;;;2.00;;
32505;SDS011;18955;51.224;8.482;2022-09-04T12:45:24;5.97;;;2.40;;
32505;SDS011;18955;51.224;8.482;2022-09-04T12:48:28;5.22;;;2.30;;
32505;SDS011;18955;51.224;8.482;2022-09-04T12:51:27;2.72;;;2.20;;
32505;SDS011;18955;51.224;8.482;2022-09-04T12:57:06;4.30;;;2.72;;
32505;SDS011;18955;51.224;8.482;2022-09-04T13:08:25;7.97;;;2.47;;
32505;SDS011;18955;51.224;8.482;2022-09-04T13:11:28;3.63;;;2.50;;
32505;SDS011;18955;51.224;8.482;2022-09-04T13:16:55;2.35;;;2.15;;
32505;SDS011;18955;51.224;8.482;2022-09-04T13:22:15;2.67;;;2.42;;
32505;SDS011;18955;51.224;8.482;2022-09-04T13:28:18;3.25;;;2.95;;
32505;SDS011;18955;51.224;8.482;2022-09-04T13:34:36;4.82;;;3.38;;
32505;SDS011;18955;51.224;8.482;2022-09-04T13:37:25;5.03;;;2.45;;
32505;SDS011;18955;51.224;8.482;2022-09-04T13:40:05;5.82;;;2.60;;
32505;SDS011;18955;51.224;8.482;2022-09-04T13:45:46;5.40;;;2.47;;
32505;SDS011;18955;51.224;8.482;2022-09-04T13:48:38;3.80;;;2.92;;
32505;SDS011;18955;51.224;8.482;2022-09-04T13:57:16;3.35;;;2.75;;
32505;SDS011;18955;51.224;8.482;2022-09-04T13:59:46;5.72;;;2.67;;
32505;SDS011;18955;51.224;8.482;2022-09-04T14:02:25;5.03;;;3.17;;
32505;SDS011;18955;51.224;8.482;2022-09-04T14:04:55;4.53;;;2.78;;
32505;SDS011;18955;51.224;8.482;2022-09-04T14:07:41;3.83;;;2.88;;
32505;SDS011;18955;51.224;8.482;2022-09-04T14:10:26;3.30;;;2.97;;
32505;SDS011;18955;51.224;8.482;2022-09-04T14:13:08;4.90;;;2.70;;
32505;SDS011;18955;51.224;8.482;2022-09-04T14:16:01;3.40;;;2.10;;
32505;SDS011;18955;51.224;8.482;2022-09-04T14:24:48;3.33;;;2.83;;
32505;SDS011;18955;51.224;8.482;2022-09-04T14:27:41;4.10;;;3.28;;
32505;SDS011;18955;51.224;8.482;2022-09-04T14:30:43;3.53;;;2.95;;
32505;SDS011;18955;51.224;8.482;2022-09-04T14:39:30;6.57;;;3.65;;
32505;SDS011;18955;51.224;8.482;2022-09-04T14:47:30;6.65;;;3.50;;
32505;SDS011;18955;51.224;8.482;2022-09-04T14:50:01;6.53;;;3.33;;
32505;SDS011;18955;51.224;8.482;2022-09-04T14:55:16;3.92;;;3.08;;
32505;SDS011;18955;51.224;8.482;2022-09-04T14:57:54;5.05;;;3.42;;
32505;SDS011;18955;51.224;8.482;2022-09-04T15:03:38;6.68;;;3.47;;
32505;SDS011;18955;51.224;8.482;2022-09-04T15:06:50;6.25;;;3.20;;
32505;SDS011;18955;51.224;8.482;2022-09-04T15:15:58;3.97;;;3.20;;
32505;SDS011;18955;51.224;8.482;2022-09-04T15:18:09;9.70;;;3.55;;
32505;SDS011;18955;51.224;8.482;2022-09-04T15:20:55;3.72;;;3.20;;
32505;SDS011;18955;51.224;8.482;2022-09-04T15:23:58;5.50;;;3.03;;
32505;SDS011;18955;51.224;8.482;2022-09-04T15:29:44;4.10;;;3.40;;
32505;SDS011;18955;51.224;8.482;2022-09-04T15:35:23;3.88;;;2.85;;
32505;SDS011;18955;51.224;8.482;2022-09-04T15:44:00;3.92;;;3.03;;
32505;SDS011;18955;51.224;8.482;2022-09-04T15:47:04;3.88;;;3.13;;
32505;SDS011;18955;51.224;8.482;2022-09-04T15:49:55;7.13;;;3.03;;
32505;SDS011;18955;51.224;8.482;2022-09-04T15:52:30;4.60;;;2.92;;
32505;SDS011;18955;51.224;8.482;2022-09-04T15:55:05;6.30;;;2.75;;
32505;SDS011;18955;51.224;8.482;2022-09-04T15:57:49;6.00;;;2.70;;
32505;SDS011;18955;51.224;8.482;2022-09-04T16:00:22;2.33;;;2.13;;
32505;SDS011;18955;51.224;8.482;2022-09-04T16:02:53;5.68;;;2.80;;
32505;SDS011;18955;51.224;8.482;2022-09-04T16:09:06;2.80;;;2.60;;
32505;SDS011;18955;51.224;8.482;2022-09-04T16:12:14;4.00;;;2.58;;
32505;SDS011;18955;51.224;8.482;2022-09-04T16:15:01;4.60;;;2.63;;
32505;SDS011;18955;51.224;8.482;2022-09-04T16:17:43;3.33;;;2.65;;
32505;SDS011;18955;51.224;8.482;2022-09-04T16:20:25;4.90;;;2.58;;
32505;SDS011;18955;51.224;8.482;2022-09-04T16:23:08;4.18;;;2.70;;
32505;SDS011;18955;51.224;8.482;2022-09-04T16:25:47;3.00;;;2.50;;
32505;SDS011;18955;51.224;8.482;2022-09-04T16:31:25;3.22;;;2.35;;
32505;SDS011;18955;51.224;8.482;2022-09-04T16:34:00;4.85;;;2.70;;
32505;SDS011;18955;51.224;8.482;2022-09-04T16:36:30;2.30;;;2.10;;
32505;SDS011;18955;51.224;8.482;2022-09-04T16:48:47;7.25;;;2.60;;
32505;SDS011;18955;51.224;8.482;2022-09-04T16:59:09;5.93;;;2.50;;
32505;SDS011;18955;51.224;8.482;2022-09-04T17:01:45;2.75;;;2.30;;
32505;SDS011;18955;51.224;8.482;2022-09-04T17:07:13;3.50;;;2.63;;
32505;SDS011;18955;51.224;8.482;2022-09-04T17:16:08;4.95;;;2.45;;
32505;SDS011;18955;51.224;8.482;2022-09-04T17:18:11;2.60;;;2.40;;
32505;SDS011;18955;51.224;8.482;2022-09-04T17:20:39;2.50;;;2.30;;
32505;SDS011;18955;51.224;8.482;2022-09-04T17:23:14;2.95;;;2.30;;
32505;SDS011;18955;51.224;8.482;2022-09-04T17:25:58;4.40;;;2.40;;
32505;SDS011;18955;51.224;8.482;2022-09-04T17:37:17;7.38;;;2.33;;
32505;SDS011;18955;51.224;8.482;2022-09-04T17:40:19;2.80;;;2.38;;
32505;SDS011;18955;51.224;8.482;2022-09-04T17:46:27;2.50;;;2.30;;
32505;SDS011;18955;51.224;8.482;2022-09-04T17:49:19;3.28;;;2.28;;
32505;SDS011;18955;51.224;8.482;2022-09-04T17:51:57;4.22;;;2.65;;
32505;SDS011;18955;51.224;8.482;2022-09-04T17:54:29;3.72;;;2.78;;
32505;SDS011;18955;51.224;8.482;2022-09-04T18:00:27;4.88;;;2.42;;
32505;SDS011;18955;51.224;8.482;2022-09-04T18:03:31;2.35;;;2.10;;
32505;SDS011;18955;51.224;8.482;2022-09-04T18:06:12;3.53;;;2.50;;
32505;SDS011;18955;51.224;8.482;2022-09-04T18:08:47;3.25;;;2.63;;
32505;SDS011;18955;51.224;8.482;2022-09-04T18:14:11;3.35;;;2.63;;
32505;SDS011;18955;51.224;8.482;2022-09-04T18:16:43;2.55;;;2.08;;
32505;SDS011;18955;51.224;8.482;2022-09-04T18:25:12;2.95;;;2.70;;
32505;SDS011;18955;51.224;8.482;2022-09-04T18:30:30;4.40;;;2.60;;
32505;SDS011;18955;51.224;8.482;2022-09-04T18:33:16;7.95;;;2.95;;
32505;SDS011;18955;51.224;8.482;2022-09-04T18:35:58;3.58;;;2.30;;
32505;SDS011;18955;51.224;8.482;2022-09-04T18:47:46;3.60;;;2.60;;
32505;SDS011;18955;51.224;8.482;2022-09-04T18:50:32;2.30;;;1.95;;
32505;SDS011;18955;51.224;8.482;2022-09-04T18:53:16;4.20;;;2.33;;
32505;SDS011;18955;51.224;8.482;2022-09-04T18:56:16;2.65;;;2.45;;
32505;SDS011;18955;51.224;8.482;2022-09-04T18:58:52;2.60;;;2.40;;
32505;SDS011;18955;51.224;8.482;2022-09-04T19:05:17;2.45;;;2.25;;
32505;SDS011;18955;51.224;8.482;2022-09-04T19:07:52;5.25;;;2.38;;
32505;SDS011;18955;51.224;8.482;2022-09-04T19:10:24;5.78;;;2.58;;
32505;SDS011;18955;51.224;8.482;2022-09-04T19:13:31;6.00;;;2.30;;
32505;SDS011;18955;51.224;8.482;2022-09-04T19:16:07;2.75;;;2.38;;
32505;SDS011;18955;51.224;8.482;2022-09-04T19:21:24;4.70;;;2.63;;
32505;SDS011;18955;51.224;8.482;2022-09-04T19:24:14;4.10;;;2.85;;
32505;SDS011;18955;51.224;8.482;2022-09-04T19:27:42;3.85;;;2.80;;
32505;SDS011;18955;51.224;8.482;2022-09-04T19:30:21;4.78;;;3.20;;
32505;SDS011;18955;51.224;8.482;2022-09-04T19:36:38;4.10;;;2.60;;
32505;SDS011;18955;51.224;8.482;2022-09-04T19:38:46;4.65;;;3.03;;
32505;SDS011;18955;51.224;8.482;2022-09-04T19:41:20;3.00;;;2.70;;
32505;SDS011;18955;51.224;8.482;2022-09-04T19:44:08;3.67;;;2.58;;
32505;SDS011;18955;51.224;8.482;2022-09-04T19:49:50;5.45;;;2.85;;
32505;SDS011;18955;51.224;8.482;2022-09-04T19:52:34;3.13;;;2.83;;
32505;SDS011;18955;51.224;8.482;2022-09-04T19:55:13;5.90;;;2.92;;
32505;SDS011;18955;51.224;8.482;2022-09-04T19:58:10;5.47;;;2.80;;
32505;SDS011;18955;51.224;8.482;2022-09-04T20:03:28;4.40;;;2.53;;
32505;SDS011;18955;51.224;8.482;2022-09-04T20:09:23;3.42;;;2.72;;
32505;SDS011;18955;51.224;8.482;2022-09-04T20:12:19;4.20;;;2.80;;
32505;SDS011;18955;51.224;8.482;2022-09-04T20:15:10;6.65;;;3.00;;
32505;SDS011;18955;51.224;8.482;2022-09-04T20:20:26;4.47;;;3.30;;
32505;SDS011;18955;51.224;8.482;2022-09-04T20:23:25;3.40;;;3.05;;
32505;SDS011;18955;51.224;8.482;2022-09-04T20:26:02;6.25;;;3.28;;
32505;SDS011;18955;51.224;8.482;2022-09-04T20:31:19;4.53;;;3.20;;
32505;SDS011;18955;51.224;8.482;2022-09-04T20:34:14;3.78;;;3.40;;
32505;SDS011;18955;51.224;8.482;2022-09-04T20:40:15;2.97;;;2.40;;
32505;SDS011;18955;51.224;8.482;2022-09-04T20:45:38;3.65;;;3.00;;
32505;SDS011;18955;51.224;8.482;2022-09-04T20:48:24;4.95;;;3.22;;
32505;SDS011;18955;51.224;8.482;2022-09-04T20:50:57;5.60;;;3.10;;
32505;SDS011;18955;51.224;8.482;2022-09-04T20:53:55;3.40;;;3.03;;
32505;SDS011;18955;51.224;8.482;2022-09-04T21:13:53;4.60;;;2.85;;
32505;SDS011;18955;51.224;8.482;2022-09-04T21:16:39;4.10;;;3.55;;
32505;SDS011;18955;51.224;8.482;2022-09-04T21:19:37;3.67;;;3.13;;
32505;SDS011;18955;51.224;8.482;2022-09-04T21:25:27;2.80;;;2.60;;
32505;SDS011;18955;51.224;8.482;2022-09-04T21:33:21;4.25;;;3.30;;
32505;SDS011;18955;51.224;8.482;2022-09-04T21:41:27;2.80;;;2.60;;
32505;SDS011;18955;51.224;8.482;2022-09-04T22:03:36;3.22;;;2.88;;
32505;SDS011;18955;51.224;8.482;2022-09-04T22:09:13;4.30;;;2.72;;
32505;SDS011;18955;51.224;8.482;2022-09-04T22:12:10;4.88;;;3.00;;
32505;SDS011;18955;51.224;8.482;2022-09-04T22:14:46;4.00;;;2.73;;
32505;SDS011;18955;51.224;8.482;2022-09-04T22:25:06;3.58;;;2.70;;
32505;SDS011;18955;51.224;8.482;2022-09-04T22:28:26;2.50;;;2.30;;
32505;SDS011;18955;51.224;8.482;2022-09-04T22:45:17;4.70;;;2.90;;
32505;SDS011;18955;51.224;8.482;2022-09-04T22:50:45;2.83;;;2.42;;
32505;SDS011;18955;51.224;8.482;2022-09-04T22:56:32;4.43;;;3.10;;
32505;SDS011;18955;51.224;8.482;2022-09-04T23:04:48;3.10;;;2.58;;
32505;SDS011;18955;51.224;8.482;2022-09-04T23:18:12;5.20;;;2.78;;
32505;SDS011;18955;51.224;8.482;2022-09-04T23:20:59;3.17;;;2.45;;
32505;SDS011;18955;51.224;8.482;2022-09-04T23:40:09;6.20;;;2.58;;
32505;SDS011;18955;51.224;8.482;2022-09-04T23:48:07;3.42;;;2.28;;
32505;SDS011;18955;51.224;8.482;2022-09-04T23:50:48;4.20;;;2.40;;
32505;SDS011;18955;51.224;8.482;2022-09-04T23:53:56;3.22;;;2.25;;
32505;SDS011;18955;51.224;8.482;2022-09-04T23:56:44;4.07;;;2.42;;
